sensor_id;sensor_type;location;lat;lon;timestamp;P1;durP1;ratioP1;P2;durP2;ratioP2
31920;SDS011;66282;52.090;4.400;2022-12-29T00:02:19;2.03;;;0.70;;
31920;SDS011;66282;52.090;4.400;2022-12-29T00:04:44;0.83;;;0.60;;
31920;SDS011;66282;52.090;4.400;2022-12-29T00:07:09;1.10;;;0.60;;
31920;SDS011;66282;52.090;4.400;2022-12-29T00:09:35;0.85;;;0.55;;
31920;SDS011;66282;52.090;4.400;2022-12-29T00:12:00;1.17;;;0.60;;
31920;SDS011;66282;52.090;4.400;2022-12-29T00:14:26;1.23;;;0.70;;
31920;SDS011;66282;52.090;4.400;2022-12-29T00:17:10;1.20;;;0.70;;
31920;SDS011;66282;52.090;4.400;2022-12-29T00:19:35;1.57;;;0.80;;
31920;SDS011;66282;52.090;4.400;2022-12-29T00:22:19;0.80;;;0.60;;
31920;SDS011;66282;52.090;4.400;2022-12-29T00:25:03;0.82;;;0.60;;
31920;SDS011;66282;52.090;4.400;2022-12-29T00:27:47;0.98;;;0.70;;
31920;SDS011;66282;52.090;4.400;2022-12-29T00:30:31;1.02;;;0.60;;
31920;SDS011;66282;52.090;4.400;2022-12-29T00:33:16;3.85;;;0.70;;
31920;SDS011;66282;52.090;4.400;2022-12-29T00:36:01;0.50;;;0.47;;
31920;SDS011;66282;52.090;4.400;2022-12-29T00:38:27;1.05;;;0.52;;
31920;SDS011;66282;52.090;4.400;2022-12-29T00:41:12;1.38;;;0.57;;
31920;SDS011;66282;52.090;4.400;2022-12-29T00:43:56;2.83;;;0.75;;
31920;SDS011;66282;52.090;4.400;2022-12-29T00:46:31;1.17;;;0.60;;
31920;SDS011;66282;52.090;4.400;2022-12-29T00:48:56;1.00;;;0.60;;
31920;SDS011;66282;52.090;4.400;2022-12-29T00:51:40;1.08;;;0.55;;
31920;SDS011;66282;52.090;4.400;2022-12-29T00:54:05;2.40;;;0.87;;
31920;SDS011;66282;52.090;4.400;2022-12-29T00:56:31;1.42;;;0.73;;
31920;SDS011;66282;52.090;4.400;2022-12-29T00:58:59;0.63;;;0.50;;
31920;SDS011;66282;52.090;4.400;2022-12-29T01:01:24;1.10;;;0.57;;
31920;SDS011;66282;52.090;4.400;2022-12-29T01:03:50;1.53;;;0.60;;
31920;SDS011;66282;52.090;4.400;2022-12-29T01:06:15;0.73;;;0.50;;
31920;SDS011;66282;52.090;4.400;2022-12-29T01:08:40;1.50;;;0.80;;
31920;SDS011;66282;52.090;4.400;2022-12-29T01:11:06;1.13;;;0.70;;
31920;SDS011;66282;52.090;4.400;2022-12-29T01:13:32;2.85;;;0.70;;
31920;SDS011;66282;52.090;4.400;2022-12-29T01:15:57;1.08;;;0.68;;
31920;SDS011;66282;52.090;4.400;2022-12-29T01:18:23;1.30;;;0.53;;
31920;SDS011;66282;52.090;4.400;2022-12-29T01:20:49;0.77;;;0.50;;
31920;SDS011;66282;52.090;4.400;2022-12-29T01:23:14;0.70;;;0.60;;
31920;SDS011;66282;52.090;4.400;2022-12-29T01:25:39;0.37;;;0.37;;
31920;SDS011;66282;52.090;4.400;2022-12-29T01:28:04;0.83;;;0.47;;
31920;SDS011;66282;52.090;4.400;2022-12-29T01:30:30;0.40;;;0.40;;
31920;SDS011;66282;52.090;4.400;2022-12-29T01:32:55;1.02;;;0.55;;
31920;SDS011;66282;52.090;4.400;2022-12-29T01:35:20;0.85;;;0.40;;
31920;SDS011;66282;52.090;4.400;2022-12-29T01:37:45;1.77;;;0.60;;
31920;SDS011;66282;52.090;4.400;2022-12-29T01:40:11;0.90;;;0.50;;
31920;SDS011;66282;52.090;4.400;2022-12-29T01:42:36;0.70;;;0.40;;
31920;SDS011;66282;52.090;4.400;2022-12-29T01:45:17;1.10;;;0.50;;
31920;SDS011;66282;52.090;4.400;2022-12-29T01:50:15;0.77;;;0.45;;
31920;SDS011;66282;52.090;4.400;2022-12-29T01:52:44;0.80;;;0.77;;
31920;SDS011;66282;52.090;4.400;2022-12-29T01:55:14;1.95;;;0.50;;
31920;SDS011;66282;52.090;4.400;2022-12-29T01:57:40;1.95;;;0.50;;
31920;SDS011;66282;52.090;4.400;2022-12-29T02:00:08;0.52;;;0.40;;
31920;SDS011;66282;52.090;4.400;2022-12-29T02:02:34;2.00;;;0.50;;
31920;SDS011;66282;52.090;4.400;2022-12-29T02:05:01;2.83;;;0.70;;
31920;SDS011;66282;52.090;4.400;2022-12-29T02:07:29;1.85;;;0.50;;
31920;SDS011;66282;52.090;4.400;2022-12-29T02:09:54;0.67;;;0.60;;
31920;SDS011;66282;52.090;4.400;2022-12-29T02:12:20;0.52;;;0.43;;
31920;SDS011;66282;52.090;4.400;2022-12-29T02:14:46;2.40;;;0.50;;
31920;SDS011;66282;52.090;4.400;2022-12-29T02:22:32;1.65;;;0.50;;
31920;SDS011;66282;52.090;4.400;2022-12-29T02:33:18;0.80;;;0.40;;
31920;SDS011;66282;52.090;4.400;2022-12-29T02:41:13;1.02;;;0.57;;
31920;SDS011;66282;52.090;4.400;2022-12-29T02:43:58;0.88;;;0.60;;
31920;SDS011;66282;52.090;4.400;2022-12-29T02:46:41;1.50;;;0.55;;
31920;SDS011;66282;52.090;4.400;2022-12-29T02:51:55;1.20;;;0.50;;
31920;SDS011;66282;52.090;4.400;2022-12-29T02:54:22;0.85;;;0.45;;
31920;SDS011;66282;52.090;4.400;2022-12-29T02:57:12;3.33;;;0.50;;
31920;SDS011;66282;52.090;4.400;2022-12-29T02:59:37;2.97;;;0.70;;
31920;SDS011;66282;52.090;4.400;2022-12-29T03:05:04;1.67;;;0.73;;
31920;SDS011;66282;52.090;4.400;2022-12-29T03:12:34;2.28;;;0.80;;
31920;SDS011;66282;52.090;4.400;2022-12-29T03:15:22;1.85;;;0.50;;
31920;SDS011;66282;52.090;4.400;2022-12-29T03:18:13;1.88;;;0.68;;
31920;SDS011;66282;52.090;4.400;2022-12-29T03:20:52;0.68;;;0.35;;
31920;SDS011;66282;52.090;4.400;2022-12-29T03:23:19;1.65;;;0.55;;
31920;SDS011;66282;52.090;4.400;2022-12-29T03:25:47;2.00;;;0.70;;
31920;SDS011;66282;52.090;4.400;2022-12-29T03:28:23;3.75;;;0.60;;
31920;SDS011;66282;52.090;4.400;2022-12-29T03:30:49;0.60;;;0.30;;
31920;SDS011;66282;52.090;4.400;2022-12-29T03:33:16;2.47;;;0.50;;
31920;SDS011;66282;52.090;4.400;2022-12-29T03:35:42;5.95;;;0.82;;
31920;SDS011;66282;52.090;4.400;2022-12-29T03:38:22;2.00;;;0.60;;
31920;SDS011;66282;52.090;4.400;2022-12-29T03:40:49;1.23;;;0.45;;
31920;SDS011;66282;52.090;4.400;2022-12-29T03:43:16;1.58;;;0.63;;
31920;SDS011;66282;52.090;4.400;2022-12-29T03:45:42;1.55;;;0.60;;
31920;SDS011;66282;52.090;4.400;2022-12-29T03:48:07;1.73;;;0.57;;
31920;SDS011;66282;52.090;4.400;2022-12-29T03:50:32;1.23;;;0.50;;
31920;SDS011;66282;52.090;4.400;2022-12-29T03:52:57;1.27;;;0.50;;
31920;SDS011;66282;52.090;4.400;2022-12-29T03:55:22;1.57;;;0.50;;
31920;SDS011;66282;52.090;4.400;2022-12-29T03:57:48;4.27;;;0.70;;
31920;SDS011;66282;52.090;4.400;2022-12-29T04:00:13;2.33;;;0.50;;
31920;SDS011;66282;52.090;4.400;2022-12-29T04:02:38;3.30;;;0.50;;
31920;SDS011;66282;52.090;4.400;2022-12-29T04:05:04;3.92;;;0.70;;
31920;SDS011;66282;52.090;4.400;2022-12-29T04:07:29;5.43;;;0.80;;
31920;SDS011;66282;52.090;4.400;2022-12-29T04:09:54;1.77;;;0.70;;
31920;SDS011;66282;52.090;4.400;2022-12-29T04:12:19;1.73;;;0.60;;
31920;SDS011;66282;52.090;4.400;2022-12-29T04:14:45;3.90;;;0.80;;
31920;SDS011;66282;52.090;4.400;2022-12-29T04:17:10;1.70;;;0.70;;
31920;SDS011;66282;52.090;4.400;2022-12-29T04:19:35;2.67;;;0.63;;
31920;SDS011;66282;52.090;4.400;2022-12-29T04:22:00;1.87;;;0.50;;
31920;SDS011;66282;52.090;4.400;2022-12-29T04:24:25;7.73;;;1.37;;
31920;SDS011;66282;52.090;4.400;2022-12-29T04:26:51;2.67;;;0.70;;
31920;SDS011;66282;52.090;4.400;2022-12-29T04:29:16;1.33;;;0.60;;
31920;SDS011;66282;52.090;4.400;2022-12-29T04:31:41;2.97;;;0.50;;
31920;SDS011;66282;52.090;4.400;2022-12-29T04:34:06;2.93;;;0.53;;
31920;SDS011;66282;52.090;4.400;2022-12-29T04:36:31;2.83;;;0.83;;
31920;SDS011;66282;52.090;4.400;2022-12-29T04:38:57;2.37;;;0.67;;
31920;SDS011;66282;52.090;4.400;2022-12-29T04:41:22;2.23;;;0.60;;
31920;SDS011;66282;52.090;4.400;2022-12-29T04:43:47;2.08;;;0.70;;
31920;SDS011;66282;52.090;4.400;2022-12-29T04:46:12;3.00;;;0.70;;
31920;SDS011;66282;52.090;4.400;2022-12-29T04:48:38;1.57;;;0.60;;
31920;SDS011;66282;52.090;4.400;2022-12-29T04:51:03;1.43;;;0.60;;
31920;SDS011;66282;52.090;4.400;2022-12-29T04:53:28;3.85;;;0.77;;
31920;SDS011;66282;52.090;4.400;2022-12-29T04:55:54;1.52;;;0.55;;
31920;SDS011;66282;52.090;4.400;2022-12-29T04:58:20;5.53;;;0.83;;
31920;SDS011;66282;52.090;4.400;2022-12-29T05:00:46;3.60;;;0.85;;
31920;SDS011;66282;52.090;4.400;2022-12-29T05:03:11;5.20;;;0.90;;
31920;SDS011;66282;52.090;4.400;2022-12-29T05:05:36;4.03;;;0.90;;
31920;SDS011;66282;52.090;4.400;2022-12-29T05:08:01;5.37;;;0.80;;
31920;SDS011;66282;52.090;4.400;2022-12-29T05:10:26;3.60;;;0.50;;
31920;SDS011;66282;52.090;4.400;2022-12-29T05:12:52;3.60;;;0.60;;
31920;SDS011;66282;52.090;4.400;2022-12-29T05:15:17;4.90;;;0.73;;
31920;SDS011;66282;52.090;4.400;2022-12-29T05:17:42;2.58;;;0.50;;
31920;SDS011;66282;52.090;4.400;2022-12-29T05:20:08;1.80;;;0.60;;
31920;SDS011;66282;52.090;4.400;2022-12-29T05:22:33;5.68;;;0.82;;
31920;SDS011;66282;52.090;4.400;2022-12-29T05:24:58;2.03;;;0.50;;
31920;SDS011;66282;52.090;4.400;2022-12-29T05:27:23;2.83;;;0.57;;
31920;SDS011;66282;52.090;4.400;2022-12-29T05:29:49;3.73;;;0.90;;
31920;SDS011;66282;52.090;4.400;2022-12-29T05:32:14;2.33;;;0.70;;
31920;SDS011;66282;52.090;4.400;2022-12-29T05:34:39;3.03;;;0.60;;
31920;SDS011;66282;52.090;4.400;2022-12-29T05:37:04;3.03;;;0.60;;
31920;SDS011;66282;52.090;4.400;2022-12-29T05:39:30;2.30;;;0.55;;
31920;SDS011;66282;52.090;4.400;2022-12-29T05:41:55;3.57;;;0.63;;
31920;SDS011;66282;52.090;4.400;2022-12-29T05:44:20;2.87;;;0.70;;
31920;SDS011;66282;52.090;4.400;2022-12-29T05:46:45;4.63;;;0.60;;
31920;SDS011;66282;52.090;4.400;2022-12-29T05:49:11;3.10;;;0.77;;
31920;SDS011;66282;52.090;4.400;2022-12-29T05:51:36;3.05;;;0.55;;
31920;SDS011;66282;52.090;4.400;2022-12-29T05:54:01;5.27;;;0.80;;
31920;SDS011;66282;52.090;4.400;2022-12-29T05:56:26;5.55;;;1.08;;
31920;SDS011;66282;52.090;4.400;2022-12-29T05:58:51;7.37;;;0.90;;
31920;SDS011;66282;52.090;4.400;2022-12-29T06:01:17;4.72;;;0.80;;
31920;SDS011;66282;52.090;4.400;2022-12-29T06:03:42;5.80;;;0.90;;
31920;SDS011;66282;52.090;4.400;2022-12-29T06:06:07;2.13;;;0.50;;
31920;SDS011;66282;52.090;4.400;2022-12-29T06:08:32;3.80;;;0.90;;
31920;SDS011;66282;52.090;4.400;2022-12-29T06:10:58;2.75;;;0.68;;
31920;SDS011;66282;52.090;4.400;2022-12-29T06:13:23;2.40;;;0.60;;
31920;SDS011;66282;52.090;4.400;2022-12-29T06:15:49;2.03;;;0.70;;
31920;SDS011;66282;52.090;4.400;2022-12-29T06:18:14;2.85;;;0.70;;
31920;SDS011;66282;52.090;4.400;2022-12-29T06:20:39;3.37;;;0.80;;
31920;SDS011;66282;52.090;4.400;2022-12-29T06:23:04;3.63;;;0.60;;
31920;SDS011;66282;52.090;4.400;2022-12-29T06:25:29;9.02;;;1.10;;
31920;SDS011;66282;52.090;4.400;2022-12-29T06:27:57;6.75;;;1.10;;
31920;SDS011;66282;52.090;4.400;2022-12-29T06:30:22;2.73;;;0.70;;
31920;SDS011;66282;52.090;4.400;2022-12-29T06:32:47;6.97;;;0.93;;
31920;SDS011;66282;52.090;4.400;2022-12-29T06:35:12;4.43;;;0.80;;
31920;SDS011;66282;52.090;4.400;2022-12-29T06:37:37;4.88;;;0.98;;
31920;SDS011;66282;52.090;4.400;2022-12-29T06:40:03;3.97;;;0.60;;
31920;SDS011;66282;52.090;4.400;2022-12-29T06:42:28;5.78;;;0.98;;
31920;SDS011;66282;52.090;4.400;2022-12-29T06:44:53;4.90;;;1.00;;
31920;SDS011;66282;52.090;4.400;2022-12-29T06:47:18;3.43;;;0.83;;
31920;SDS011;66282;52.090;4.400;2022-12-29T06:49:44;6.13;;;1.07;;
31920;SDS011;66282;52.090;4.400;2022-12-29T06:52:09;8.68;;;1.17;;
31920;SDS011;66282;52.090;4.400;2022-12-29T06:54:34;6.20;;;0.70;;
31920;SDS011;66282;52.090;4.400;2022-12-29T06:56:59;5.00;;;0.90;;
31920;SDS011;66282;52.090;4.400;2022-12-29T06:59:25;7.90;;;1.00;;
31920;SDS011;66282;52.090;4.400;2022-12-29T07:01:50;6.07;;;0.95;;
31920;SDS011;66282;52.090;4.400;2022-12-29T07:04:16;4.88;;;0.90;;
31920;SDS011;66282;52.090;4.400;2022-12-29T07:06:41;5.50;;;0.70;;
31920;SDS011;66282;52.090;4.400;2022-12-29T07:09:07;4.10;;;1.10;;
31920;SDS011;66282;52.090;4.400;2022-12-29T07:11:32;3.95;;;0.90;;
31920;SDS011;66282;52.090;4.400;2022-12-29T07:13:58;6.72;;;1.00;;
31920;SDS011;66282;52.090;4.400;2022-12-29T07:16:23;2.78;;;0.77;;
31920;SDS011;66282;52.090;4.400;2022-12-29T07:18:48;7.20;;;1.20;;
31920;SDS011;66282;52.090;4.400;2022-12-29T07:21:14;5.60;;;1.20;;
31920;SDS011;66282;52.090;4.400;2022-12-29T07:23:39;4.22;;;0.65;;
31920;SDS011;66282;52.090;4.400;2022-12-29T07:26:06;3.03;;;1.00;;
31920;SDS011;66282;52.090;4.400;2022-12-29T07:28:32;2.40;;;0.75;;
31920;SDS011;66282;52.090;4.400;2022-12-29T07:30:57;4.82;;;1.02;;
31920;SDS011;66282;52.090;4.400;2022-12-29T07:33:22;9.15;;;1.08;;
31920;SDS011;66282;52.090;4.400;2022-12-29T07:35:48;6.97;;;1.20;;
31920;SDS011;66282;52.090;4.400;2022-12-29T07:38:13;2.83;;;0.85;;
31920;SDS011;66282;52.090;4.400;2022-12-29T07:40:38;1.80;;;0.63;;
31920;SDS011;66282;52.090;4.400;2022-12-29T07:43:03;5.17;;;1.00;;
31920;SDS011;66282;52.090;4.400;2022-12-29T07:45:29;2.83;;;0.70;;
31920;SDS011;66282;52.090;4.400;2022-12-29T07:47:54;7.90;;;1.00;;
31920;SDS011;66282;52.090;4.400;2022-12-29T07:50:19;7.17;;;0.90;;
31920;SDS011;66282;52.090;4.400;2022-12-29T07:52:44;7.67;;;1.47;;
31920;SDS011;66282;52.090;4.400;2022-12-29T07:55:12;5.53;;;1.08;;
31920;SDS011;66282;52.090;4.400;2022-12-29T07:57:37;5.82;;;0.90;;
31920;SDS011;66282;52.090;4.400;2022-12-29T08:00:02;4.33;;;1.10;;
31920;SDS011;66282;52.090;4.400;2022-12-29T08:02:28;3.30;;;0.93;;
31920;SDS011;66282;52.090;4.400;2022-12-29T08:04:54;5.15;;;1.13;;
31920;SDS011;66282;52.090;4.400;2022-12-29T08:07:19;6.73;;;0.80;;
31920;SDS011;66282;52.090;4.400;2022-12-29T08:09:45;2.77;;;0.60;;
31920;SDS011;66282;52.090;4.400;2022-12-29T08:12:10;4.30;;;0.83;;
31920;SDS011;66282;52.090;4.400;2022-12-29T08:14:35;1.50;;;0.60;;
31920;SDS011;66282;52.090;4.400;2022-12-29T08:17:00;4.50;;;0.77;;
31920;SDS011;66282;52.090;4.400;2022-12-29T08:19:26;3.83;;;0.80;;
31920;SDS011;66282;52.090;4.400;2022-12-29T08:21:52;4.33;;;0.70;;
31920;SDS011;66282;52.090;4.400;2022-12-29T08:24:17;5.25;;;0.80;;
31920;SDS011;66282;52.090;4.400;2022-12-29T08:26:42;5.77;;;1.13;;
31920;SDS011;66282;52.090;4.400;2022-12-29T08:29:07;7.03;;;1.10;;
31920;SDS011;66282;52.090;4.400;2022-12-29T08:31:32;6.83;;;0.97;;
31920;SDS011;66282;52.090;4.400;2022-12-29T08:33:58;3.33;;;0.83;;
31920;SDS011;66282;52.090;4.400;2022-12-29T08:36:24;4.47;;;0.98;;
31920;SDS011;66282;52.090;4.400;2022-12-29T08:38:50;5.63;;;1.00;;
31920;SDS011;66282;52.090;4.400;2022-12-29T08:41:15;3.17;;;0.75;;
31920;SDS011;66282;52.090;4.400;2022-12-29T08:43:40;5.03;;;0.80;;
31920;SDS011;66282;52.090;4.400;2022-12-29T08:46:05;3.27;;;0.80;;
31920;SDS011;66282;52.090;4.400;2022-12-29T08:48:31;5.50;;;1.10;;
31920;SDS011;66282;52.090;4.400;2022-12-29T08:50:56;7.37;;;1.00;;
31920;SDS011;66282;52.090;4.400;2022-12-29T08:53:21;7.30;;;0.90;;
31920;SDS011;66282;52.090;4.400;2022-12-29T08:55:46;2.23;;;0.70;;
31920;SDS011;66282;52.090;4.400;2022-12-29T08:58:12;3.40;;;1.00;;
31920;SDS011;66282;52.090;4.400;2022-12-29T09:00:39;6.28;;;0.95;;
31920;SDS011;66282;52.090;4.400;2022-12-29T09:03:05;4.50;;;0.88;;
31920;SDS011;66282;52.090;4.400;2022-12-29T09:05:30;7.27;;;1.03;;
31920;SDS011;66282;52.090;4.400;2022-12-29T09:07:55;2.23;;;0.60;;
31920;SDS011;66282;52.090;4.400;2022-12-29T09:10:20;3.10;;;0.53;;
31920;SDS011;66282;52.090;4.400;2022-12-29T09:12:45;2.83;;;0.57;;
31920;SDS011;66282;52.090;4.400;2022-12-29T09:15:11;6.63;;;1.00;;
31920;SDS011;66282;52.090;4.400;2022-12-29T09:24:08;7.65;;;1.27;;
31920;SDS011;66282;52.090;4.400;2022-12-29T09:27:04;3.88;;;1.20;;
31920;SDS011;66282;52.090;4.400;2022-12-29T09:29:29;8.10;;;1.48;;
31920;SDS011;66282;52.090;4.400;2022-12-29T09:31:54;10.90;;;1.63;;
31920;SDS011;66282;52.090;4.400;2022-12-29T09:34:20;18.45;;;2.10;;
31920;SDS011;66282;52.090;4.400;2022-12-29T09:36:45;11.85;;;1.45;;
31920;SDS011;66282;52.090;4.400;2022-12-29T09:39:11;18.92;;;1.73;;
31920;SDS011;66282;52.090;4.400;2022-12-29T09:44:18;4.65;;;1.45;;
31920;SDS011;66282;52.090;4.400;2022-12-29T09:46:54;9.40;;;1.10;;
31920;SDS011;66282;52.090;4.400;2022-12-29T09:52:19;6.25;;;1.10;;
31920;SDS011;66282;52.090;4.400;2022-12-29T09:57:42;7.35;;;1.80;;
31920;SDS011;66282;52.090;4.400;2022-12-29T10:00:13;7.05;;;1.02;;
31920;SDS011;66282;52.090;4.400;2022-12-29T10:02:46;9.93;;;1.50;;
31920;SDS011;66282;52.090;4.400;2022-12-29T10:16:25;7.28;;;1.65;;
31920;SDS011;66282;52.090;4.400;2022-12-29T10:24:18;16.92;;;1.92;;
31920;SDS011;66282;52.090;4.400;2022-12-29T10:26:46;6.85;;;1.55;;
31920;SDS011;66282;52.090;4.400;2022-12-29T10:29:18;12.07;;;1.42;;
31920;SDS011;66282;52.090;4.400;2022-12-29T10:31:56;10.30;;;1.33;;
31920;SDS011;66282;52.090;4.400;2022-12-29T10:34:46;6.70;;;1.38;;
31920;SDS011;66282;52.090;4.400;2022-12-29T10:37:15;7.53;;;1.40;;
31920;SDS011;66282;52.090;4.400;2022-12-29T10:39:51;9.32;;;1.35;;
31920;SDS011;66282;52.090;4.400;2022-12-29T10:44:43;7.73;;;1.53;;
31920;SDS011;66282;52.090;4.400;2022-12-29T10:47:14;8.88;;;1.27;;
31920;SDS011;66282;52.090;4.400;2022-12-29T10:49:42;4.75;;;1.13;;
31920;SDS011;66282;52.090;4.400;2022-12-29T10:52:11;5.50;;;1.23;;
31920;SDS011;66282;52.090;4.400;2022-12-29T10:54:51;7.53;;;1.42;;
31920;SDS011;66282;52.090;4.400;2022-12-29T10:57:29;7.68;;;1.58;;
31920;SDS011;66282;52.090;4.400;2022-12-29T10:59:58;6.45;;;1.45;;
31920;SDS011;66282;52.090;4.400;2022-12-29T11:05:30;7.40;;;1.33;;
31920;SDS011;66282;52.090;4.400;2022-12-29T11:08:12;9.73;;;1.10;;
31920;SDS011;66282;52.090;4.400;2022-12-29T11:10:41;6.25;;;1.65;;
31920;SDS011;66282;52.090;4.400;2022-12-29T11:13:16;9.45;;;1.73;;
31920;SDS011;66282;52.090;4.400;2022-12-29T11:15:47;7.50;;;1.20;;
31920;SDS011;66282;52.090;4.400;2022-12-29T11:21:00;8.90;;;1.50;;
31920;SDS011;66282;52.090;4.400;2022-12-29T11:28:44;8.32;;;1.17;;
31920;SDS011;66282;52.090;4.400;2022-12-29T11:31:15;7.65;;;1.33;;
31920;SDS011;66282;52.090;4.400;2022-12-29T11:33:41;5.93;;;1.33;;
31920;SDS011;66282;52.090;4.400;2022-12-29T11:36:17;6.75;;;1.30;;
31920;SDS011;66282;52.090;4.400;2022-12-29T11:38:46;8.10;;;1.38;;
31920;SDS011;66282;52.090;4.400;2022-12-29T11:41:25;4.90;;;0.93;;
31920;SDS011;66282;52.090;4.400;2022-12-29T11:43:53;8.98;;;1.38;;
31920;SDS011;66282;52.090;4.400;2022-12-29T11:46:20;6.15;;;1.10;;
31920;SDS011;66282;52.090;4.400;2022-12-29T11:48:50;7.65;;;1.00;;
31920;SDS011;66282;52.090;4.400;2022-12-29T11:51:23;4.57;;;0.80;;
31920;SDS011;66282;52.090;4.400;2022-12-29T11:53:56;2.95;;;1.00;;
31920;SDS011;66282;52.090;4.400;2022-12-29T12:01:52;4.82;;;1.00;;
31920;SDS011;66282;52.090;4.400;2022-12-29T12:04:19;7.05;;;1.52;;
31920;SDS011;66282;52.090;4.400;2022-12-29T12:06:49;5.03;;;1.13;;
31920;SDS011;66485;52.128;4.436;2022-12-29T12:15:22;4.65;;;0.80;;
31920;SDS011;66485;52.128;4.436;2022-12-29T12:17:54;7.95;;;1.42;;
31920;SDS011;66485;52.128;4.436;2022-12-29T12:20:27;3.78;;;1.27;;
31920;SDS011;66485;52.128;4.436;2022-12-29T12:23:22;2.72;;;1.05;;
31920;SDS011;66485;52.128;4.436;2022-12-29T12:26:02;7.68;;;1.90;;
31920;SDS011;66485;52.128;4.436;2022-12-29T12:28:55;7.03;;;1.25;;
31920;SDS011;66485;52.128;4.436;2022-12-29T12:34:06;8.02;;;1.33;;
31920;SDS011;66485;52.128;4.436;2022-12-29T12:53:51;4.55;;;1.23;;
31920;SDS011;66485;52.128;4.436;2022-12-29T12:56:26;2.33;;;0.68;;
31920;SDS011;66485;52.128;4.436;2022-12-29T12:59:07;8.73;;;1.55;;
31920;SDS011;66485;52.128;4.436;2022-12-29T13:18:52;28.45;;;2.10;;
31920;SDS011;66485;52.128;4.436;2022-12-29T13:21:27;28.48;;;2.50;;
31920;SDS011;66485;52.128;4.436;2022-12-29T13:30:04;32.28;;;2.33;;
31920;SDS011;66485;52.128;4.436;2022-12-29T13:35:53;55.30;;;3.78;;
31920;SDS011;66485;52.128;4.436;2022-12-29T13:38:21;62.28;;;3.72;;
31920;SDS011;66485;52.128;4.436;2022-12-29T13:40:52;38.70;;;3.10;;
31920;SDS011;66485;52.128;4.436;2022-12-29T13:43:21;24.57;;;2.40;;
31920;SDS011;66485;52.128;4.436;2022-12-29T13:45:59;47.33;;;3.88;;
31920;SDS011;66485;52.128;4.436;2022-12-29T13:48:41;40.08;;;3.78;;
31920;SDS011;66485;52.128;4.436;2022-12-29T13:51:07;38.70;;;2.97;;
31920;SDS011;66485;52.128;4.436;2022-12-29T13:53:40;42.80;;;4.47;;
31920;SDS011;66485;52.128;4.436;2022-12-29T13:56:20;42.50;;;3.88;;
31920;SDS011;66485;52.128;4.436;2022-12-29T13:59:04;45.03;;;3.75;;
31920;SDS011;66485;52.128;4.436;2022-12-29T14:04:24;54.22;;;3.25;;
31920;SDS011;66485;52.128;4.436;2022-12-29T14:09:46;31.15;;;3.65;;
31920;SDS011;66485;52.128;4.436;2022-12-29T14:14:44;50.83;;;3.75;;
31920;SDS011;66485;52.128;4.436;2022-12-29T14:17:10;43.65;;;4.35;;
31920;SDS011;66485;52.128;4.436;2022-12-29T14:19:38;37.83;;;3.60;;
31920;SDS011;66485;52.128;4.436;2022-12-29T14:22:06;50.38;;;3.83;;
31920;SDS011;66485;52.128;4.436;2022-12-29T14:26:58;39.23;;;4.30;;
31920;SDS011;66485;52.128;4.436;2022-12-29T14:31:49;57.90;;;4.17;;
31920;SDS011;66485;52.128;4.436;2022-12-29T14:34:15;39.60;;;3.45;;
31920;SDS011;66485;52.128;4.436;2022-12-29T14:39:41;53.90;;;4.50;;
31920;SDS011;66485;52.128;4.436;2022-12-29T14:44:33;37.00;;;3.87;;
31920;SDS011;66485;52.128;4.436;2022-12-29T14:47:05;45.50;;;3.60;;
31920;SDS011;66485;52.128;4.436;2022-12-29T14:49:33;29.23;;;4.85;;
31920;SDS011;66485;52.128;4.436;2022-12-29T14:54:46;36.03;;;4.55;;
31920;SDS011;66485;52.128;4.436;2022-12-29T14:57:32;42.13;;;4.30;;
31920;SDS011;66485;52.128;4.436;2022-12-29T15:00:22;36.67;;;4.70;;
31920;SDS011;66485;52.128;4.436;2022-12-29T15:03:02;35.75;;;3.33;;
31920;SDS011;66485;52.128;4.436;2022-12-29T15:08:39;41.10;;;4.10;;
31920;SDS011;66485;52.128;4.436;2022-12-29T15:11:18;32.38;;;3.45;;
31920;SDS011;66485;52.128;4.436;2022-12-29T15:13:46;30.05;;;4.03;;
31920;SDS011;66485;52.128;4.436;2022-12-29T15:16:46;32.08;;;3.40;;
31920;SDS011;66485;52.128;4.436;2022-12-29T15:19:05;27.38;;;3.25;;
31920;SDS011;66485;52.128;4.436;2022-12-29T15:21:46;33.70;;;3.05;;
31920;SDS011;66485;52.128;4.436;2022-12-29T15:24:12;45.92;;;4.35;;
31920;SDS011;66485;52.128;4.436;2022-12-29T15:26:42;32.58;;;3.28;;
31920;SDS011;66485;52.128;4.436;2022-12-29T15:32:25;25.67;;;3.28;;
31920;SDS011;66485;52.128;4.436;2022-12-29T15:34:52;32.70;;;3.78;;
31920;SDS011;66485;52.128;4.436;2022-12-29T15:37:26;21.48;;;2.20;;
31920;SDS011;66485;52.128;4.436;2022-12-29T15:39:54;25.42;;;3.20;;
31920;SDS011;66485;52.128;4.436;2022-12-29T15:45:09;30.75;;;3.30;;
31920;SDS011;66485;52.128;4.436;2022-12-29T15:47:36;20.92;;;2.72;;
31920;SDS011;66485;52.128;4.436;2022-12-29T15:50:04;36.00;;;3.15;;
31920;SDS011;66485;52.128;4.436;2022-12-29T15:52:33;37.22;;;3.50;;
31920;SDS011;66485;52.128;4.436;2022-12-29T15:54:59;37.63;;;3.67;;
31920;SDS011;66485;52.128;4.436;2022-12-29T15:57:27;41.20;;;3.60;;
31920;SDS011;66485;52.128;4.436;2022-12-29T16:00:01;40.00;;;3.50;;
31920;SDS011;66485;52.128;4.436;2022-12-29T16:02:26;39.50;;;3.25;;
31920;SDS011;66485;52.128;4.436;2022-12-29T16:04:53;36.20;;;2.95;;
31920;SDS011;66485;52.128;4.436;2022-12-29T16:07:29;41.53;;;4.10;;
31920;SDS011;66485;52.128;4.436;2022-12-29T16:09:56;53.22;;;4.10;;
31920;SDS011;66485;52.128;4.436;2022-12-29T16:12:24;47.58;;;4.18;;
31920;SDS011;66485;52.128;4.436;2022-12-29T16:14:56;50.17;;;4.28;;
31920;SDS011;66485;52.128;4.436;2022-12-29T16:17:25;45.25;;;5.35;;
31920;SDS011;66485;52.128;4.436;2022-12-29T16:19:58;36.97;;;4.25;;
31920;SDS011;66485;52.128;4.436;2022-12-29T16:22:36;40.20;;;2.65;;
31920;SDS011;66485;52.128;4.436;2022-12-29T16:25:50;44.28;;;4.43;;
31920;SDS011;66485;52.128;4.436;2022-12-29T16:27:56;36.63;;;3.35;;
31920;SDS011;66485;52.128;4.436;2022-12-29T16:30:24;36.95;;;3.72;;
31920;SDS011;66485;52.128;4.436;2022-12-29T16:32:50;35.50;;;4.20;;
31920;SDS011;66485;52.128;4.436;2022-12-29T16:35:27;33.88;;;3.67;;
31920;SDS011;66485;52.128;4.436;2022-12-29T16:43:28;44.17;;;3.55;;
31920;SDS011;66485;52.128;4.436;2022-12-29T16:48:25;26.23;;;3.33;;
31920;SDS011;66485;52.128;4.436;2022-12-29T16:50:51;22.88;;;3.50;;
31920;SDS011;66485;52.128;4.436;2022-12-29T16:53:38;39.88;;;4.82;;
31920;SDS011;66485;52.128;4.436;2022-12-29T16:56:08;48.83;;;4.53;;
31920;SDS011;66485;52.128;4.436;2022-12-29T16:58:39;25.10;;;3.00;;
31920;SDS011;66485;52.128;4.436;2022-12-29T17:01:05;34.65;;;4.32;;
31920;SDS011;66485;52.128;4.436;2022-12-29T17:03:40;23.70;;;3.88;;
31920;SDS011;66485;52.128;4.436;2022-12-29T17:06:16;35.42;;;3.10;;
31920;SDS011;66485;52.128;4.436;2022-12-29T17:08:42;26.30;;;3.70;;
31920;SDS011;66485;52.128;4.436;2022-12-29T17:11:27;26.10;;;3.30;;
31920;SDS011;66485;52.128;4.436;2022-12-29T17:16:47;16.65;;;2.67;;
31920;SDS011;66485;52.128;4.436;2022-12-29T17:19:34;16.90;;;2.20;;
31920;SDS011;66485;52.128;4.436;2022-12-29T17:22:01;28.33;;;3.00;;
31920;SDS011;66485;52.128;4.436;2022-12-29T17:24:27;25.35;;;3.45;;
31920;SDS011;66485;52.128;4.436;2022-12-29T17:26:56;25.05;;;3.00;;
31920;SDS011;66485;52.128;4.436;2022-12-29T17:31:55;19.83;;;2.90;;
31920;SDS011;66485;52.128;4.436;2022-12-29T17:34:20;22.80;;;3.10;;
31920;SDS011;66485;52.128;4.436;2022-12-29T17:36:45;14.52;;;2.22;;
31920;SDS011;66485;52.128;4.436;2022-12-29T17:39:11;25.50;;;2.45;;
31920;SDS011;66485;52.128;4.436;2022-12-29T17:41:36;23.45;;;2.92;;
31920;SDS011;66485;52.128;4.436;2022-12-29T17:44:02;21.42;;;2.45;;
31920;SDS011;66485;52.128;4.436;2022-12-29T17:46:28;32.10;;;2.83;;
31920;SDS011;66485;52.128;4.436;2022-12-29T17:48:53;17.15;;;1.98;;
31920;SDS011;66485;52.128;4.436;2022-12-29T17:51:19;19.10;;;2.42;;
31920;SDS011;66485;52.128;4.436;2022-12-29T17:53:45;19.60;;;3.22;;